Time,TemperatureF,DewpointF,PressureIn,WindDirection,WindDirectionDegrees,WindSpeedMPH,WindSpeedGustMPH,Humidity,HourlyPrecipIn,Conditions,Clouds,dailyrainin,SoftwareType,DateUTC
2013-03-16 00:03:00,41.2,20.0,30.11,West,279,0.0,-999.0,42,-99.99,,,0.00,weatherlink.com 1.10,2013-03-16 06:03:00,
2013-03-16 00:17:00,41.3,17.0,30.11,West,279,0.0,-999.0,38,-99.99,,,0.00,weatherlink.com 1.10,2013-03-16 06:17:00,
2013-03-16 00:32:00,40.8,19.0,30.10,West,279,0.0,-999.0,41,-99.99,,,0.00,weatherlink.com 1.10,2013-03-16 06:32:00,
2013-03-16 00:47:00,40.3,18.0,30.12,West,279,0.0,-999.0,41,-99.99,,,0.00,weatherlink.com 1.10,2013-03-16 06:47:00,
2013-03-16 01:02:00,39.9,20.0,30.06,West,279,0.0,-999.0,45,-99.99,,,0.00,weatherlink.com 1.10,2013-03-16 07:02:00,
2013-03-16 01:17:00,40.5,18.0,30.06,West,279,0.0,-999.0,41,-99.99,,,0.00,weatherlink.com 1.10,2013-03-16 07:17:00,
2013-03-16 01:32:00,40.2,20.0,30.06,West,279,0.0,-999.0,44,-99.99,,,0.00,weatherlink.com 1.10,2013-03-16 07:32:00,
2013-03-16 01:47:00,39.8,22.0,30.05,West,279,0.0,-999.0,49,-99.99,,,0.00,weatherlink.com 1.10,2013-03-16 07:47:00,
2013-03-16 02:02:00,39.5,21.0,30.07,West,279,0.0,-999.0,47,-99.99,,,0.00,weatherlink.com 1.10,2013-03-16 08:02:00,
2013-03-16 02:17:00,39.1,20.0,30.07,West,279,0.0,-999.0,46,-99.99,,,0.00,weatherlink.com 1.10,2013-03-16 08:17:00,
2013-03-16 02:33:00,39.1,21.0,30.07,West,279,0.0,-999.0,48,-99.99,,,0.00,weatherlink.com 1.10,2013-03-16 08:33:00,
2013-03-16 02:47:00,39.8,20.0,30.05,West,279,0.0,-999.0,45,-99.99,,,0.00,weatherlink.com 1.10,2013-03-16 08:47:00,
2013-03-16 03:02:00,39.3,20.0,30.08,West,279,0.0,-999.0,46,-99.99,,,0.00,weatherlink.com 1.10,2013-03-16 09:02:00,
2013-03-16 03:18:00,39.2,21.0,30.07,West,279,0.0,-999.0,48,-99.99,,,0.00,weatherlink.com 1.10,2013-03-16 09:18:00,
2013-03-16 03:32:00,38.6,21.0,30.07,West,279,0.0,-999.0,49,-99.99,,,0.00,weatherlink.com 1.10,2013-03-16 09:32:00,
2013-03-16 03:47:00,39.1,22.0,30.06,West,279,1.0,-999.0,50,-99.99,,,0.00,weatherlink.com 1.10,2013-03-16 09:47:00,
2013-03-16 04:03:00,39.2,21.0,30.07,WNW,287,0.0,-999.0,48,-99.99,,,0.00,weatherlink.com 1.10,2013-03-16 10:03:00,
2013-03-16 04:17:00,39.2,22.0,30.07,WNW,287,0.0,-999.0,50,-99.99,,,0.00,weatherlink.com 1.10,2013-03-16 10:17:00,
2013-03-16 04:33:00,38.8,21.0,30.07,WNW,287,0.0,-999.0,50,-99.99,,,0.00,weatherlink.com 1.10,2013-03-16 10:33:00,
2013-03-16 04:48:00,38.3,20.0,30.06,WNW,287,0.0,-999.0,48,-99.99,,,0.00,weatherlink.com 1.10,2013-03-16 10:48:00,
2013-03-16 05:03:00,38.5,21.0,30.06,WNW,287,0.0,-999.0,49,-99.99,,,0.00,weatherlink.com 1.10,2013-03-16 11:03:00,
2013-03-16 05:19:00,38.3,21.0,30.05,WNW,287,0.0,-999.0,50,-99.99,,,0.00,weatherlink.com 1.10,2013-03-16 11:19:00,
2013-03-16 05:33:00,38.6,21.0,30.06,WNW,287,0.0,-999.0,49,-99.99,,,0.00,weatherlink.com 1.10,2013-03-16 11:33:00,
2013-03-16 05:48:00,38.9,22.0,30.05,WNW,287,1.0,-999.0,52,-99.99,,,0.00,weatherlink.com 1.10,2013-03-16 11:48:00,
2013-03-16 06:03:00,39.5,23.0,30.08,WNW,287,0.0,-999.0,51,-99.99,,,0.00,weatherlink.com 1.10,2013-03-16 12:03:00,
2013-03-16 06:18:00,39.3,21.0,30.09,WNW,287,1.0,-999.0,49,-99.99,,,0.00,weatherlink.com 1.10,2013-03-16 12:18:00,
2013-03-16 06:33:00,39.5,23.0,30.08,WNW,287,0.0,-999.0,52,-99.99,,,0.00,weatherlink.com 1.10,2013-03-16 12:33:00,
2013-03-16 06:48:00,39.1,23.0,30.10,WNW,287,0.0,-999.0,52,-99.99,,,0.00,weatherlink.com 1.10,2013-03-16 12:48:00,
2013-03-16 07:03:00,38.8,22.0,30.14,WNW,287,0.0,-999.0,51,-99.99,,,0.00,weatherlink.com 1.10,2013-03-16 13:03:00,
2013-03-16 07:17:00,38.0,23.0,30.15,WNW,287,0.0,-999.0,55,-99.99,,,0.00,weatherlink.com 1.10,2013-03-16 13:17:00,
2013-03-16 07:32:00,37.8,23.0,30.14,WNW,287,0.0,-999.0,55,-99.99,,,0.00,weatherlink.com 1.10,2013-03-16 13:32:00,
2013-03-16 07:47:00,37.9,22.0,30.14,WNW,287,0.0,-999.0,53,-99.99,,,0.00,weatherlink.com 1.10,2013-03-16 13:47:00,
2013-03-16 08:02:00,38.8,22.0,30.13,WNW,287,0.0,-999.0,52,-99.99,,,0.00,weatherlink.com 1.10,2013-03-16 14:02:00,
2013-03-16 08:17:00,40.2,24.0,30.13,WNW,287,0.0,-999.0,53,-99.99,,,0.00,weatherlink.com 1.10,2013-03-16 14:17:00,
2013-03-16 08:32:00,40.9,25.0,30.10,WNW,287,1.0,-999.0,54,-99.99,,,0.00,weatherlink.com 1.10,2013-03-16 14:32:00,
2013-03-16 08:47:00,41.1,24.0,30.10,WNW,287,0.0,-999.0,51,-99.99,,,0.00,weatherlink.com 1.10,2013-03-16 14:47:00,
2013-03-16 09:02:00,41.8,23.0,30.13,WNW,287,0.0,-999.0,48,-99.99,,,0.00,weatherlink.com 1.10,2013-03-16 15:02:00,
2013-03-16 09:17:00,42.8,22.0,30.12,WNW,287,0.0,-999.0,43,-99.99,,,0.00,weatherlink.com 1.10,2013-03-16 15:17:00,
2013-03-16 09:32:00,44.5,22.0,30.12,WNW,287,0.0,-999.0,41,-99.99,,,0.00,weatherlink.com 1.10,2013-03-16 15:32:00,
2013-03-16 10:02:00,45.8,26.0,30.12,WNW,287,0.0,-999.0,46,-99.99,,,0.00,weatherlink.com 1.10,2013-03-16 16:02:00,
2013-03-16 10:17:00,46.7,25.0,30.12,WNW,287,0.0,-999.0,43,-99.99,,,0.00,weatherlink.com 1.10,2013-03-16 16:17:00,
2013-03-16 10:32:00,47.4,24.0,30.11,WNW,287,0.0,-999.0,40,-99.99,,,0.00,weatherlink.com 1.10,2013-03-16 16:32:00,
2013-03-16 10:47:00,48.6,26.0,30.09,WNW,287,0.0,-999.0,42,-99.99,,,0.00,weatherlink.com 1.10,2013-03-16 16:47:00,
2013-03-16 11:02:00,49.8,26.0,30.09,WNW,287,1.0,-999.0,39,-99.99,,,0.00,weatherlink.com 1.10,2013-03-16 17:02:00,
2013-03-16 11:17:00,51.3,24.0,30.09,WNW,292,0.0,-999.0,34,-99.99,,,0.00,weatherlink.com 1.10,2013-03-16 17:17:00,
2013-03-16 11:32:00,51.0,23.0,30.09,SSE,149,0.0,-999.0,33,-99.99,,,0.00,weatherlink.com 1.10,2013-03-16 17:32:00,
2013-03-16 11:49:00,50.7,23.0,30.09,South,182,2.0,-999.0,34,-99.99,,,0.00,weatherlink.com 1.10,2013-03-16 17:49:00,
2013-03-16 12:02:00,51.4,25.0,30.10,South,183,0.0,-999.0,36,-99.99,,,0.00,weatherlink.com 1.10,2013-03-16 18:02:00,
2013-03-16 12:17:00,54.4,23.0,30.06,SE,124,2.0,-999.0,29,-99.99,,,0.00,weatherlink.com 1.10,2013-03-16 18:17:00,
2013-03-16 12:32:00,56.2,22.0,30.04,South,189,0.0,-999.0,27,-99.99,,,0.00,weatherlink.com 1.10,2013-03-16 18:32:00,
2013-03-16 12:47:00,56.0,23.0,30.04,South,177,11.0,-999.0,28,-99.99,,,0.00,weatherlink.com 1.10,2013-03-16 18:47:00,
2013-03-16 13:02:00,55.9,24.0,30.03,East,100,5.0,-999.0,29,-99.99,,,0.00,weatherlink.com 1.10,2013-03-16 19:02:00,
2013-03-16 13:17:00,56.2,23.0,30.01,ESE,107,1.0,-999.0,28,-99.99,,,0.00,weatherlink.com 1.10,2013-03-16 19:17:00,
2013-03-16 13:32:00,55.6,23.0,30.03,ESE,110,2.0,-999.0,28,-99.99,,,0.00,weatherlink.com 1.10,2013-03-16 19:32:00,
2013-03-16 13:47:00,55.1,23.0,30.02,SSW,206,1.0,-999.0,29,-99.99,,,0.00,weatherlink.com 1.10,2013-03-16 19:47:00,
2013-03-16 14:02:00,55.9,22.0,30.00,SSW,211,0.0,-999.0,27,-99.99,,,0.00,weatherlink.com 1.10,2013-03-16 20:02:00,
2013-03-16 14:17:00,55.1,22.0,30.02,WSW,239,7.0,-999.0,28,-99.99,,,0.00,weatherlink.com 1.10,2013-03-16 20:17:00,
2013-03-16 14:33:00,54.4,25.0,30.02,SW,217,6.0,-999.0,32,-99.99,,,0.00,weatherlink.com 1.10,2013-03-16 20:33:00,
2013-03-16 14:47:00,55.3,27.0,30.01,NNE,25,6.0,-999.0,34,-99.99,,,0.00,weatherlink.com 1.10,2013-03-16 20:47:00,
2013-03-16 15:02:00,53.6,28.0,30.02,ENE,73,6.0,-999.0,37,-99.99,,,0.00,weatherlink.com 1.10,2013-03-16 21:02:00,
2013-03-16 15:17:00,53.1,29.0,30.02,East,97,1.0,-999.0,39,-99.99,,,0.00,weatherlink.com 1.10,2013-03-16 21:17:00,
2013-03-16 15:32:00,52.8,31.0,30.01,ENE,70,2.0,-999.0,43,-99.99,,,0.00,weatherlink.com 1.10,2013-03-16 21:32:00,
2013-03-16 15:47:00,54.2,29.0,30.00,NNE,15,1.0,-999.0,38,-99.99,,,0.00,weatherlink.com 1.10,2013-03-16 21:47:00,
2013-03-16 16:02:00,55.6,27.0,29.98,NNE,22,7.0,-999.0,34,-99.99,,,0.00,weatherlink.com 1.10,2013-03-16 22:02:00,
2013-03-16 16:17:00,54.2,28.0,30.00,NE,40,2.0,-999.0,37,-99.99,,,0.00,weatherlink.com 1.10,2013-03-16 22:17:00,
2013-03-16 16:32:00,55.1,27.0,30.00,NE,49,2.0,-999.0,34,-99.99,,,0.00,weatherlink.com 1.10,2013-03-16 22:32:00,
2013-03-16 16:47:00,53.3,25.0,30.01,NW,321,3.0,-999.0,34,-99.99,,,0.00,weatherlink.com 1.10,2013-03-16 22:47:00,
2013-03-16 17:02:00,52.0,25.0,30.02,NNE,32,4.0,-999.0,35,-99.99,,,0.00,weatherlink.com 1.10,2013-03-16 23:02:00,
2013-03-16 17:17:00,51.9,24.0,30.02,East,84,3.0,-999.0,34,-99.99,,,0.00,weatherlink.com 1.10,2013-03-16 23:17:00,
2013-03-16 17:33:00,52.3,23.0,30.03,ENE,66,1.0,-999.0,32,-99.99,,,0.00,weatherlink.com 1.10,2013-03-16 23:33:00,
2013-03-16 17:47:00,52.3,22.0,30.03,ENE,76,1.0,-999.0,31,-99.99,,,0.00,weatherlink.com 1.10,2013-03-16 23:47:00,
2013-03-16 18:03:00,50.7,22.0,30.03,ESE,104,0.0,-999.0,32,-99.99,,,0.00,weatherlink.com 1.10,2013-03-17 00:03:00,
2013-03-16 18:17:00,49.9,21.0,30.05,NE,55,0.0,-999.0,32,-99.99,,,0.00,weatherlink.com 1.10,2013-03-17 00:17:00,
2013-03-16 18:32:00,49.1,19.0,30.05,East,90,3.0,-999.0,30,-99.99,,,0.00,weatherlink.com 1.10,2013-03-17 00:32:00,
2013-03-16 18:48:00,48.6,21.0,30.05,NE,53,2.0,-999.0,33,-99.99,,,0.00,weatherlink.com 1.10,2013-03-17 00:48:00,
2013-03-16 19:02:00,47.9,21.0,30.07,ESE,110,0.0,-999.0,35,-99.99,,,0.00,weatherlink.com 1.10,2013-03-17 01:02:00,
2013-03-16 19:18:00,47.6,21.0,30.07,ESE,111,0.0,-999.0,35,-99.99,,,0.00,weatherlink.com 1.10,2013-03-17 01:18:00,
2013-03-16 19:33:00,47.1,23.0,30.09,ESE,119,5.0,-999.0,39,-99.99,,,0.00,weatherlink.com 1.10,2013-03-17 01:33:00,
2013-03-16 19:48:00,46.4,24.0,30.11,NE,50,1.0,-999.0,42,-99.99,,,0.00,weatherlink.com 1.10,2013-03-17 01:48:00,
2013-03-16 20:03:00,45.5,25.0,30.10,NE,52,0.0,-999.0,44,-99.99,,,0.00,weatherlink.com 1.10,2013-03-17 02:03:00,
2013-03-16 20:18:00,43.8,26.0,30.11,NE,55,0.0,-999.0,49,-99.99,,,0.00,weatherlink.com 1.10,2013-03-17 02:18:00,
2013-03-16 20:33:00,42.3,27.0,30.11,NE,55,0.0,-999.0,54,-99.99,,,0.00,weatherlink.com 1.10,2013-03-17 02:33:00,
2013-03-16 20:48:00,41.1,26.0,30.13,NE,55,0.0,-999.0,56,-99.99,,,0.00,weatherlink.com 1.10,2013-03-17 02:48:00,
2013-03-16 21:03:00,40.1,26.0,30.11,NE,55,0.0,-999.0,57,-99.99,,,0.00,weatherlink.com 1.10,2013-03-17 03:03:00,
2013-03-16 21:18:00,39.2,26.0,30.11,NE,55,0.0,-999.0,59,-99.99,,,0.00,weatherlink.com 1.10,2013-03-17 03:18:00,
2013-03-16 21:33:00,40.5,24.0,30.11,North,1,2.0,-999.0,53,-99.99,,,0.00,weatherlink.com 1.10,2013-03-17 03:33:00,
2013-03-16 21:48:00,41.9,25.0,30.10,North,1,0.0,-999.0,52,-99.99,,,0.00,weatherlink.com 1.10,2013-03-17 03:48:00,
2013-03-16 22:03:00,39.1,26.0,30.09,North,1,0.0,-999.0,59,-99.99,,,0.00,weatherlink.com 1.10,2013-03-17 04:03:00,
2013-03-16 22:18:00,38.2,25.0,30.10,North,1,0.0,-999.0,60,-99.99,,,0.00,weatherlink.com 1.10,2013-03-17 04:18:00,
2013-03-16 22:33:00,37.8,26.0,30.10,North,1,0.0,-999.0,62,-99.99,,,0.00,weatherlink.com 1.10,2013-03-17 04:33:00,
2013-03-16 22:47:00,36.9,25.0,30.10,North,1,0.0,-999.0,63,-99.99,,,0.00,weatherlink.com 1.10,2013-03-17 04:47:00,
2013-03-16 23:02:00,37.2,25.0,30.08,North,1,0.0,-999.0,62,-99.99,,,0.00,weatherlink.com 1.10,2013-03-17 05:02:00,
2013-03-16 23:17:00,36.5,25.0,30.08,North,1,0.0,-999.0,64,-99.99,,,0.00,weatherlink.com 1.10,2013-03-17 05:17:00,
2013-03-16 23:32:00,35.9,25.0,30.10,North,1,0.0,-999.0,64,-99.99,,,0.00,weatherlink.com 1.10,2013-03-17 05:32:00,
2013-03-16 23:47:00,36.3,24.0,30.10,North,1,0.0,-999.0,62,-99.99,,,0.00,weatherlink.com 1.10,2013-03-17 05:47:00,